Time;durP1;ratioP1;P1;durP2;ratioP2;P2;SDS_P1;SDS_P2;PMS_P1;PMS_P2;Temp;Humidity;BMP_temperature;BMP_pressure;BME280_temperature;BME280_humidity;BME280_pressure;Samples;Min_cycle;Max_cycle;Signal;HPM_P1;HPM_P2
2021/01/05 00:01:02;;;;;;;5.20;4.67;;;;;;;4.31;73.93;101585.25;5124183;28;20201;-78
2021/01/05 00:03:28;;;;;;;4.87;4.47;;;;;;;3.78;77.15;101584.38;5122312;28;20537;-75
2021/01/05 00:05:53;;;;;;;5.67;5.17;;;;;;;3.94;76.84;101593.72;5122642;28;20210;-69
2021/01/05 00:08:19;;;;;;;5.10;4.60;;;;;;;4.01;75.72;101585.53;5121563;28;20175;-68
2021/01/05 00:10:44;;;;;;;4.83;3.93;;;;;;;3.54;77.42;101590.91;5120206;28;20179;-70
2021/01/05 00:13:09;;;;;;;4.40;4.00;;;;;;;4.12;76.31;101588.63;5121111;28;20193;-69
2021/01/05 00:15:35;;;;;;;5.27;4.77;;;;;;;3.95;75.89;101593.84;5120745;28;20509;-70
2021/01/05 00:18:00;;;;;;;4.30;3.90;;;;;;;4.25;76.38;101590.09;5120533;28;20199;-69
2021/01/05 00:20:29;;;;;;;4.30;3.70;;;;;;;3.49;77.02;101594.03;5120931;28;20167;-69
2021/01/05 00:22:55;;;;;;;4.87;4.37;;;;;;;4.59;73.76;101592.63;5120637;27;20601;-69
2021/01/05 00:25:20;;;;;;;5.10;4.30;;;;;;;3.93;76.74;101589.41;5120441;28;20460;-67
2021/01/05 00:27:46;;;;;;;4.20;3.73;;;;;;;3.76;75.95;101591.13;5120463;28;20212;-69
2021/01/05 00:30:18;;;;;;;5.77;4.50;;;;;;;4.04;75.49;101591.69;5119836;28;20579;-69
2021/01/05 00:32:45;;;;;;;5.10;4.60;;;;;;;3.74;77.28;101593.63;5119926;28;20164;-68
2021/01/05 00:35:12;;;;;;;4.90;4.50;;;;;;;4.23;77.21;101584.88;5120327;28;20451;-68
2021/01/05 00:37:38;;;;;;;5.83;4.00;;;;;;;3.98;76.12;101582.78;5119224;28;20466;-71
2021/01/05 00:40:05;;;;;;;4.50;4.10;;;;;;;3.61;77.33;101592.09;5119753;28;20508;-71
2021/01/05 00:42:30;;;;;;;3.73;3.40;;;;;;;3.23;77.99;101588.41;5120012;28;20194;-71
2021/01/05 00:44:55;;;;;;;4.70;3.90;;;;;;;3.75;77.69;101585.09;5119684;28;20808;-71
2021/01/05 00:47:21;;;;;;;4.30;3.90;;;;;;;4.07;75.33;101582.34;5119662;28;20522;-71
2021/01/05 00:49:46;;;;;;;4.90;4.37;;;;;;;3.68;77.37;101582.97;5119949;28;20172;-72
2021/01/05 00:52:11;;;;;;;4.30;3.90;;;;;;;4.00;75.64;101582.03;5119637;28;20258;-71
2021/01/05 00:54:37;;;;;;;4.60;4.10;;;;;;;3.69;75.92;101595.97;5119673;28;20518;-72
2021/01/05 00:57:07;;;;;;;5.00;3.47;;;;;;;3.71;76.25;101596.94;5119849;28;20168;-73
2021/01/05 00:59:33;;;;;;;5.00;4.40;;;;;;;3.75;77.49;101594.50;5119419;27;20224;-69
2021/01/05 01:01:59;;;;;;;4.63;4.23;;;;;;;3.95;75.75;101588.69;5119531;28;20447;-70
2021/01/05 01:04:25;;;;;;;6.23;4.40;;;;;;;4.27;74.08;101591.09;5119074;28;20171;-70
2021/01/05 01:06:50;;;;;;;5.40;3.87;;;;;;;3.85;76.63;101586.44;5119351;28;20211;-72
2021/01/05 01:09:15;;;;;;;4.37;3.97;;;;;;;3.69;76.83;101587.34;5119186;27;20675;-70
2021/01/05 01:12:01;;;;;;;4.37;3.97;;;;;;;4.10;75.66;101585.97;5119578;28;20202;-69
2021/01/05 01:14:26;;;;;;;4.40;4.00;;;;;;;3.75;76.05;101589.34;5119144;28;20175;-71
2021/01/05 01:16:52;;;;;;;4.53;4.13;;;;;;;3.90;76.00;101590.13;5119319;28;20424;-71
2021/01/05 01:19:17;;;;;;;4.63;4.13;;;;;;;4.05;75.89;101590.91;5119006;28;20241;-70
2021/01/05 01:21:51;;;;;;;4.23;3.70;;;;;;;4.00;75.60;101594.94;5119130;28;20167;-70
2021/01/05 01:24:19;;;;;;;3.87;3.53;;;;;;;3.42;77.96;101591.97;5118837;27;20609;-69
2021/01/05 01:26:44;;;;;;;4.63;4.23;;;;;;;3.96;76.96;101590.44;5118883;28;20452;-68
2021/01/05 01:29:09;;;;;;;5.10;4.27;;;;;;;4.04;76.00;101585.66;5118979;28;20444;-70
2021/01/05 01:31:35;;;;;;;5.07;4.20;;;;;;;4.29;75.24;101581.69;5118825;28;20187;-70
2021/01/05 01:34:00;;;;;;;4.90;4.40;;;;;;;4.25;74.61;101588.44;5118878;28;20217;-69
2021/01/05 01:36:26;;;;;;;5.43;4.63;;;;;;;4.27;74.89;101583.34;5119101;27;20163;-70
2021/01/05 01:38:51;;;;;;;5.00;4.33;;;;;;;3.98;75.29;101582.78;5118705;28;20233;-71
2021/01/05 01:41:16;;;;;;;4.20;3.80;;;;;;;3.64;76.52;101593.94;5118525;28;20199;-71
2021/01/05 01:43:42;;;;;;;4.13;3.83;;;;;;;3.41;77.49;101598.81;5118981;28;20167;-71
2021/01/05 01:46:07;;;;;;;4.10;3.70;;;;;;;3.60;77.00;101589.44;5118503;28;20211;-71
2021/01/05 01:48:33;;;;;;;4.73;4.30;;;;;;;3.60;76.96;101592.00;5117927;28;20447;-71
2021/01/05 01:51:00;;;;;;;4.43;4.03;;;;;;;3.62;77.18;101588.72;5118607;28;20183;-71
2021/01/05 01:53:39;;;;;;;4.13;3.73;;;;;;;3.53;77.04;101595.97;5117683;28;20172;-70
2021/01/05 01:56:32;;;;;;;5.07;3.80;;;;;;;3.58;76.05;101594.53;5117722;28;20527;-70
2021/01/05 01:59:05;;;;;;;3.40;3.10;;;;;;;3.03;77.94;101601.13;5118408;28;20476;-69
2021/01/05 02:01:45;;;;;;;4.40;4.00;;;;;;;3.73;76.18;101588.41;5118270;28;20413;-70
2021/01/05 02:04:24;;;;;;;5.10;4.10;;;;;;;3.81;76.66;101594.81;5118244;28;20500;-70
2021/01/05 02:07:11;;;;;;;4.43;4.03;;;;;;;3.62;76.81;101588.72;5118092;28;20460;-70
2021/01/05 02:09:53;;;;;;;3.93;3.63;;;;;;;3.29;77.89;101601.63;5117402;28;20430;-70
2021/01/05 02:12:30;;;;;;;4.90;4.20;;;;;;;3.66;77.16;101590.66;5117624;28;20814;-69
2021/01/05 02:15:13;;;;;;;3.80;3.50;;;;;;;3.65;76.58;101583.75;5118093;28;20725;-70
2021/01/05 02:18:01;;;;;;;4.23;3.83;;;;;;;3.29;77.49;101600.72;5118103;28;20402;-71
2021/01/05 02:20:30;;;;;;;5.00;4.60;;;;;;;3.95;76.78;101586.09;5117863;28;20398;-70
2021/01/05 02:23:10;;;;;;;4.77;4.37;;;;;;;4.28;74.76;101588.56;5117087;28;20425;-71
2021/01/05 02:25:47;;;;;;;4.03;3.60;;;;;;;3.03;78.85;101580.50;5117107;28;20484;-70
2021/01/05 02:28:13;;;;;;;5.00;4.60;;;;;;;3.56;76.54;101579.78;5117025;28;20470;-69
2021/01/05 02:30:45;;;;;;;4.90;4.40;;;;;;;3.32;78.38;101588.91;5116954;28;20410;-71
2021/01/05 02:33:16;;;;;;;4.87;4.43;;;;;;;3.63;76.88;101582.75;5116775;28;20444;-70
2021/01/05 02:35:52;;;;;;;7.73;4.80;;;;;;;3.64;77.46;101575.91;5117211;28;20421;-69
2021/01/05 02:38:49;;;;;;;5.53;4.97;;;;;;;4.39;75.46;101578.78;5117226;28;20682;-70
2021/01/05 02:41:28;;;;;;;5.20;4.70;;;;;;;3.88;76.70;101584.00;5117028;28;20856;-70
2021/01/05 02:44:22;;;;;;;4.50;4.10;;;;;;;4.20;76.31;101584.72;5117974;28;20499;-70
2021/01/05 02:46:53;;;;;;;5.30;4.80;;;;;;;3.40;77.19;101591.88;5116972;28;20547;-69
2021/01/05 02:49:43;;;;;;;5.20;4.70;;;;;;;3.99;75.67;101580.28;5117777;28;21279;-70
2021/01/05 02:52:46;;;;;;;4.37;3.97;;;;;;;3.52;77.46;101581.34;5117729;28;20417;-70
2021/01/05 02:55:44;;;;;;;4.50;4.10;;;;;;;3.26;78.44;101583.44;5117951;28;20809;-69
2021/01/05 02:58:33;;;;;;;5.43;4.67;;;;;;;4.02;76.55;101575.28;5116834;28;20512;-71
2021/01/05 03:01:24;;;;;;;5.07;4.60;;;;;;;3.58;77.31;101580.75;5117704;28;20410;-71
2021/01/05 03:03:49;;;;;;;4.77;4.33;;;;;;;3.80;77.20;101582.72;5116778;28;20512;-71
2021/01/05 03:06:23;;;;;;;4.67;4.27;;;;;;;3.51;78.25;101575.28;5117342;28;20552;-72
2021/01/05 03:09:07;;;;;;;4.80;4.30;;;;;;;3.64;78.03;101579.38;5117496;28;20536;-70
2021/01/05 03:12:11;;;;;;;5.57;5.07;;;;;;;4.33;78.85;101571.63;5117480;28;20405;-76
2021/01/05 03:14:46;;;;;;;5.17;4.67;;;;;;;7.39;73.09;101557.69;5115058;28;20431;-66
2021/01/05 03:17:21;;;;;;;4.17;3.87;;;;;;;5.41;69.51;101565.34;5117616;28;20420;-70
2021/01/05 03:19:51;;;;;;;4.83;4.40;;;;;;;4.32;74.46;101567.25;5116581;28;20440;-68
2021/01/05 03:22:18;;;;;;;4.97;4.00;;;;;;;3.47;77.44;101572.47;5117414;28;20675;-68
2021/01/05 03:24:44;;;;;;;4.90;4.50;;;;;;;3.81;76.78;101567.31;5116461;28;20465;-69
2021/01/05 03:27:11;;;;;;;5.80;4.77;;;;;;;4.13;75.02;101573.22;5116586;28;20687;-70
2021/01/05 03:29:36;;;;;;;5.53;4.90;;;;;;;4.02;76.54;101567.53;5116815;28;20321;-68
2021/01/05 03:32:06;;;;;;;5.70;4.53;;;;;;;4.64;73.58;101567.94;5117390;28;20862;-69
2021/01/05 03:34:32;;;;;;;4.87;4.37;;;;;;;4.38;73.75;101569.25;5117435;28;20178;-69
2021/01/05 03:36:57;;;;;;;5.10;4.53;;;;;;;3.85;75.06;101565.81;5118238;28;20666;-69
2021/01/05 03:39:23;;;;;;;5.70;5.17;;;;;;;4.59;73.64;101571.97;5117445;28;20244;-68
2021/01/05 03:41:48;;;;;;;5.20;4.70;;;;;;;4.47;73.83;101568.81;5117364;28;20590;-68
2021/01/05 03:44:13;;;;;;;6.40;5.80;;;;;;;3.51;76.73;101571.81;5118514;28;20171;-68
2021/01/05 03:46:38;;;;;;;5.13;4.63;;;;;;;3.62;78.08;101577.53;5121067;28;20209;-69
2021/01/05 03:49:04;;;;;;;5.10;4.60;;;;;;;3.54;77.29;101569.38;5121130;28;20558;-69
2021/01/05 03:51:29;;;;;;;5.87;5.27;;;;;;;3.78;77.40;101569.75;5121501;28;20199;-69
2021/01/05 03:53:54;;;;;;;5.53;5.03;;;;;;;3.53;77.38;101575.34;5121031;28;20463;-68
2021/01/05 03:56:20;;;;;;;6.00;5.40;;;;;;;3.86;76.99;101572.75;5120724;28;20176;-69
2021/01/05 03:58:45;;;;;;;5.80;5.30;;;;;;;3.70;77.86;101569.38;5121168;28;20175;-70
2021/01/05 04:01:10;;;;;;;6.07;5.47;;;;;;;4.11;76.71;101566.22;5120768;28;20379;-70
2021/01/05 04:03:36;;;;;;;5.63;5.10;;;;;;;4.45;74.95;101573.00;5120722;28;20179;-70
2021/01/05 04:06:01;;;;;;;6.33;5.53;;;;;;;4.14;75.02;101580.16;5121061;28;20211;-69
2021/01/05 04:08:28;;;;;;;6.30;5.70;;;;;;;4.23;76.34;101569.38;5119949;28;20424;-70
2021/01/05 04:10:53;;;;;;;8.43;5.60;;;;;;;3.85;77.00;101571.84;5120383;28;20175;-70
2021/01/05 04:13:19;;;;;;;7.70;5.50;;;;;;;4.55;74.98;101568.34;5120909;28;20427;-70
2021/01/05 04:15:44;;;;;;;6.40;5.83;;;;;;;3.58;77.23;101578.19;5120082;28;20275;-69
2021/01/05 04:18:09;;;;;;;6.03;5.43;;;;;;;3.91;76.65;101563.53;5120319;28;20258;-70
2021/01/05 04:20:35;;;;;;;6.53;5.93;;;;;;;3.94;77.26;101570.50;5120737;28;20529;-70
2021/01/05 04:23:00;;;;;;;6.23;5.63;;;;;;;3.57;79.18;101574.69;5120073;28;20600;-70
2021/01/05 04:25:28;;;;;;;7.27;6.40;;;;;;;3.97;77.81;101576.72;5120354;28;20199;-70
2021/01/05 04:27:54;;;;;;;8.47;6.03;;;;;;;3.50;78.69;101576.06;5120656;28;20164;-69
2021/01/05 04:30:27;;;;;;;7.10;6.10;;;;;;;3.74;78.41;101575.56;5120057;28;20890;-69
2021/01/05 04:32:54;;;;;;;6.87;5.90;;;;;;;3.61;77.36;101571.47;5119985;28;20426;-70
2021/01/05 04:35:21;;;;;;;5.87;5.27;;;;;;;4.00;77.50;101576.00;5120243;28;20500;-69
2021/01/05 04:37:46;;;;;;;7.10;5.53;;;;;;;3.34;79.99;101582.16;5120113;28;20475;-70
2021/01/05 04:40:38;;;;;;;6.23;5.57;;;;;;;3.57;78.11;101585.00;5119866;28;20410;-69
2021/01/05 04:43:17;;;;;;;9.20;6.10;;;;;;;3.85;78.69;101581.28;5119174;28;20167;-70
2021/01/05 04:46:00;;;;;;;8.23;6.33;;;;;;;3.84;77.15;101584.66;5119708;27;20779;-70
2021/01/05 04:48:32;;;;;;;6.30;5.70;;;;;;;4.81;74.51;101578.16;5118953;28;20929;-69
2021/01/05 04:50:59;;;;;;;9.60;6.23;;;;;;;3.79;78.40;101586.09;5118922;28;20413;-69
2021/01/05 04:53:31;;;;;;;7.70;5.73;;;;;;;4.10;77.61;101578.25;5119076;28;20510;-69
2021/01/05 04:56:12;;;;;;;6.50;5.20;;;;;;;3.45;78.91;101594.69;5118485;28;20420;-70
2021/01/05 04:58:56;;;;;;;6.40;5.80;;;;;;;3.69;78.72;101580.50;5119426;28;20502;-69
2021/01/05 05:01:24;;;;;;;6.90;6.20;;;;;;;4.09;76.95;101580.75;5118652;28;20470;-69
2021/01/05 05:04:12;;;;;;;6.90;5.53;;;;;;;3.19;79.75;101592.53;5119600;28;20417;-70
2021/01/05 05:06:50;;;;;;;6.80;6.10;;;;;;;4.05;77.32;101583.16;5119375;28;20465;-70
2021/01/05 05:09:23;;;;;;;6.87;6.17;;;;;;;3.94;77.70;101591.16;5118582;28;20417;-69
2021/01/05 05:11:59;;;;;;;7.13;6.33;;;;;;;4.14;77.02;101585.31;5119376;28;20409;-70
2021/01/05 05:14:52;;;;;;;6.83;6.13;;;;;;;3.48;79.13;101592.28;5118576;28;20405;-70
2021/01/05 05:17:38;;;;;;;7.60;6.70;;;;;;;3.49;78.68;101588.88;5119257;28;20539;-70
2021/01/05 05:20:22;;;;;;;6.90;6.20;;;;;;;3.65;79.22;101594.06;5118387;28;20417;-69
2021/01/05 05:23:27;;;;;;;7.43;6.63;;;;;;;3.79;77.96;101597.34;5119145;28;20423;-70
2021/01/05 05:26:03;;;;;;;6.97;6.20;;;;;;;3.64;78.59;101596.53;5095741;28;20465;-69
2021/01/05 05:28:34;;;;;;;7.53;6.53;;;;;;;3.62;79.45;101593.88;5118332;28;20416;-69
2021/01/05 05:31:02;;;;;;;8.17;5.80;;;;;;;3.32;79.44;101599.19;5118056;28;20456;-69
2021/01/05 05:33:31;;;;;;;8.57;7.60;;;;;;;3.67;78.75;101597.59;5118117;28;20409;-70
2021/01/05 05:36:27;;;;;;;8.40;6.90;;;;;;;3.52;79.63;101596.81;5118832;28;20750;-68
2021/01/05 05:38:57;;;;;;;8.50;7.50;;;;;;;3.71;78.46;101598.63;5118951;27;20844;-69
2021/01/05 05:41:37;;;;;;;7.50;6.73;;;;;;;3.67;77.93;101594.13;5119283;27;20413;-70
2021/01/05 05:44:15;;;;;;;7.60;6.57;;;;;;;3.61;78.69;101594.66;5118480;28;20414;-69
2021/01/05 05:46:45;;;;;;;8.30;7.40;;;;;;;4.00;77.01;101587.19;5118338;28;20456;-69
2021/01/05 05:49:23;;;;;;;8.50;6.93;;;;;;;3.54;78.96;101593.50;5119095;28;20515;-69
2021/01/05 05:51:50;;;;;;;9.90;7.50;;;;;;;4.27;75.71;101602.28;5118293;28;20444;-69
2021/01/05 05:54:21;;;;;;;8.00;6.83;;;;;;;4.13;76.39;101590.41;5117967;28;20409;-69
2021/01/05 05:56:53;;;;;;;9.43;7.43;;;;;;;3.84;78.67;101601.03;5118455;28;20814;-69
2021/01/05 05:59:35;;;;;;;8.10;7.30;;;;;;;3.56;78.58;101596.16;5118403;28;20448;-70
2021/01/05 06:02:01;;;;;;;8.40;7.60;;;;;;;3.73;78.92;101603.88;5117834;28;20496;-69
2021/01/05 06:04:26;;;;;;;8.67;7.60;;;;;;;3.76;77.68;101599.75;5119008;28;20448;-69
2021/01/05 06:06:51;;;;;;;7.10;5.90;;;;;;;3.32;79.94;101606.94;5118731;28;20203;-69
2021/01/05 06:09:17;;;;;;;9.50;8.50;;;;;;;3.53;79.27;101602.03;5119081;28;20198;-70
2021/01/05 06:11:51;;;;;;;9.27;7.97;;;;;;;3.93;77.81;101600.59;5118809;28;20203;-70
2021/01/05 06:14:16;;;;;;;9.13;7.63;;;;;;;3.75;77.71;101604.81;5118260;28;20175;-69
2021/01/05 06:16:41;;;;;;;8.50;7.50;;;;;;;3.51;78.66;101620.81;5118127;28;20466;-69
2021/01/05 06:19:07;;;;;;;10.40;7.90;;;;;;;3.77;78.36;101613.53;5118465;28;20168;-69
2021/01/05 06:21:32;;;;;;;8.93;7.50;;;;;;;3.76;78.65;101614.34;5118209;28;20258;-69
2021/01/05 06:23:57;;;;;;;7.77;6.97;;;;;;;3.69;77.54;101615.72;5118142;28;20242;-69
2021/01/05 06:26:23;;;;;;;9.63;8.13;;;;;;;4.09;77.12;101616.88;5118152;28;20611;-69
2021/01/05 06:28:49;;;;;;;9.50;7.77;;;;;;;3.60;78.92;101625.53;5117864;28;21040;-68
2021/01/05 06:31:14;;;;;;;9.83;7.80;;;;;;;3.61;78.33;101617.00;5117825;28;20176;-69
2021/01/05 06:33:39;;;;;;;8.57;7.67;;;;;;;4.01;78.85;101622.50;5118437;28;20172;-69
2021/01/05 06:36:05;;;;;;;11.00;9.17;;;;;;;4.68;76.57;101610.25;5117936;28;20556;-69
2021/01/05 06:38:31;;;;;;;9.10;7.87;;;;;;;4.21;77.28;101618.34;5117816;28;20292;-69
2021/01/05 06:40:56;;;;;;;9.07;7.13;;;;;;;3.92;77.31;101622.03;5117148;28;20182;-70
2021/01/05 06:43:21;;;;;;;12.13;8.50;;;;;;;3.58;79.36;101628.03;5117818;28;20172;-70
2021/01/05 06:45:46;;;;;;;10.17;8.63;;;;;;;3.74;78.29;101628.84;5117763;28;20478;-68
2021/01/05 06:48:12;;;;;;;9.57;8.57;;;;;;;4.15;77.66;101628.34;5118016;28;20552;-69
2021/01/05 06:50:37;;;;;;;9.43;8.43;;;;;;;4.16;77.28;101624.97;5117485;28;20183;-70
2021/01/05 06:53:02;;;;;;;9.90;8.50;;;;;;;4.00;77.46;101625.91;5117787;28;20525;-70
2021/01/05 06:55:28;;;;;;;9.20;7.50;;;;;;;3.84;77.14;101625.94;5118015;28;20166;-69
2021/01/05 06:57:53;;;;;;;10.67;7.40;;;;;;;3.77;78.67;101634.16;5117813;28;20216;-69
2021/01/05 07:00:23;;;;;;;8.10;7.13;;;;;;;3.71;79.12;101625.28;5117404;28;20192;-68
2021/01/05 07:02:48;;;;;;;8.60;7.50;;;;;;;4.46;76.06;101623.84;5118092;28;20167;-68
2021/01/05 07:05:14;;;;;;;9.57;7.67;;;;;;;3.45;79.73;101633.34;5117393;28;20459;-69
2021/01/05 07:07:40;;;;;;;9.10;7.23;;;;;;;3.46;79.34;101633.44;5117535;28;20182;-69
2021/01/05 07:10:06;;;;;;;7.93;7.07;;;;;;;3.58;79.60;101634.91;5118000;28;20409;-68
2021/01/05 07:12:32;;;;;;;9.30;8.20;;;;;;;3.57;79.38;101634.00;5117817;28;20567;-69
2021/01/05 07:14:58;;;;;;;8.10;7.30;;;;;;;3.87;78.65;101629.56;5117533;28;20444;-69
2021/01/05 07:17:24;;;;;;;8.40;7.60;;;;;;;4.59;75.44;101626.22;5117947;28;20171;-69
2021/01/05 07:19:49;;;;;;;8.80;7.60;;;;;;;3.94;78.25;101635.00;5120907;28;20687;-69
2021/01/05 07:22:14;;;;;;;8.80;7.80;;;;;;;4.14;77.77;101636.03;5121579;28;20186;-70
2021/01/05 07:24:40;;;;;;;6.97;6.00;;;;;;;3.42;79.21;101646.97;5121292;28;20232;-68
2021/01/05 07:27:06;;;;;;;10.00;7.20;;;;;;;4.40;76.67;101632.19;5121533;28;20211;-70
2021/01/05 07:29:31;;;;;;;9.77;7.70;;;;;;;3.90;78.06;101646.88;5121705;27;20217;-70
2021/01/05 07:31:56;;;;;;;9.23;8.13;;;;;;;3.66;79.13;101649.06;5121484;28;20179;-70
2021/01/05 07:34:21;;;;;;;7.90;7.10;;;;;;;3.62;79.07;101644.56;5121178;28;20171;-70
2021/01/05 07:36:49;;;;;;;9.37;8.30;;;;;;;3.83;77.47;101644.78;5121745;28;20175;-69
2021/01/05 07:39:19;;;;;;;8.57;7.67;;;;;;;4.12;77.55;101648.00;5121110;28;20445;-70
2021/01/05 07:41:45;;;;;;;8.20;7.17;;;;;;;3.51;79.35;101646.59;5121150;28;20421;-69
2021/01/05 07:44:11;;;;;;;9.63;7.63;;;;;;;4.03;77.81;101648.38;5121566;28;20675;-68
2021/01/05 07:46:36;;;;;;;10.33;8.13;;;;;;;4.58;75.63;101644.22;5121085;28;20456;-68
2021/01/05 07:49:01;;;;;;;8.50;7.70;;;;;;;4.48;75.94;101645.44;5120915;28;20213;-70
2021/01/05 07:51:27;;;;;;;9.50;8.53;;;;;;;4.01;77.37;101647.44;5121343;28;20190;-69
2021/01/05 07:53:52;;;;;;;10.67;8.17;;;;;;;4.19;77.19;101650.97;5120836;28;20190;-69
2021/01/05 07:56:17;;;;;;;11.40;8.27;;;;;;;3.90;78.49;101652.06;5120983;28;20220;-70
2021/01/05 07:58:43;;;;;;;9.17;8.10;;;;;;;4.07;78.01;101654.59;5120993;28;20167;-70
2021/01/05 08:01:08;;;;;;;10.03;8.13;;;;;;;4.55;75.01;101648.41;5120455;28;20223;-69
2021/01/05 08:03:33;;;;;;;9.30;8.00;;;;;;;3.65;78.92;101655.03;5120427;28;20172;-69
2021/01/05 08:05:59;;;;;;;8.40;7.60;;;;;;;3.73;78.87;101653.75;5120242;28;20207;-70
2021/01/05 08:08:25;;;;;;;10.33;8.73;;;;;;;3.95;78.63;101654.84;5120673;28;20176;-70
2021/01/05 08:10:51;;;;;;;12.07;9.70;;;;;;;4.77;75.86;101648.56;5120433;28;20174;-69
2021/01/05 08:13:16;;;;;;;9.40;8.40;;;;;;;3.67;78.34;101659.47;5120681;28;20507;-70
2021/01/05 08:15:41;;;;;;;9.03;8.13;;;;;;;3.96;79.08;101649.75;5120469;27;20171;-69
2021/01/05 08:18:07;;;;;;;9.50;8.10;;;;;;;4.01;78.57;101655.19;5120581;28;20179;-70
2021/01/05 08:20:33;;;;;;;10.63;8.27;;;;;;;3.97;78.42;101651.53;5120715;27;20163;-70
2021/01/05 08:22:59;;;;;;;10.53;8.93;;;;;;;4.09;78.14;101646.13;5120478;28;20330;-69
2021/01/05 08:25:24;;;;;;;9.10;8.20;;;;;;;3.69;78.79;101664.69;5120478;28;20210;-69
2021/01/05 08:27:51;;;;;;;10.80;9.10;;;;;;;4.04;78.91;101661.38;5120846;28;20774;-70
2021/01/05 08:30:21;;;;;;;8.93;8.03;;;;;;;4.34;77.41;101649.94;5119436;28;20179;-70
2021/01/05 08:32:47;;;;;;;8.57;7.67;;;;;;;3.95;78.69;101660.00;5120246;28;20405;-69
2021/01/05 08:35:13;;;;;;;11.00;7.37;;;;;;;3.75;79.05;101656.41;5120508;28;20876;-69
2021/01/05 08:37:40;;;;;;;9.27;7.90;;;;;;;3.91;79.56;101663.25;5120024;28;20172;-69
2021/01/05 08:40:14;;;;;;;9.40;8.37;;;;;;;4.41;77.32;101656.28;5119948;28;20413;-69
2021/01/05 08:42:39;;;;;;;10.67;8.20;;;;;;;3.97;78.97;101659.28;5119821;28;20417;-70
2021/01/05 08:45:05;;;;;;;8.20;7.40;;;;;;;3.78;78.45;101674.63;5119814;28;20440;-70
2021/01/05 08:47:31;;;;;;;8.07;7.00;;;;;;;3.59;80.21;101665.03;5120064;28;20243;-70
2021/01/05 08:49:56;;;;;;;9.37;8.33;;;;;;;4.29;78.49;101666.88;5119533;27;20770;-70
2021/01/05 08:52:21;;;;;;;9.00;7.27;;;;;;;3.89;79.36;101673.47;5119772;28;20167;-69
2021/01/05 08:54:47;;;;;;;9.20;7.67;;;;;;;4.27;77.81;101669.38;5120062;28;20510;-70
2021/01/05 08:57:13;;;;;;;9.13;7.40;;;;;;;3.77;79.59;101667.69;5119698;28;20180;-69
2021/01/05 08:59:39;;;;;;;9.57;8.43;;;;;;;4.27;77.16;101664.22;5119241;28;20232;-70
2021/01/05 09:02:04;;;;;;;8.43;7.53;;;;;;;4.35;77.92;101657.75;5119834;28;20445;-71
2021/01/05 09:04:30;;;;;;;8.80;7.90;;;;;;;4.91;76.03;101657.84;5119578;28;20185;-70
2021/01/05 09:06:55;;;;;;;9.60;7.73;;;;;;;4.38;77.50;101665.66;5119369;28;20235;-71
2021/01/05 09:09:21;;;;;;;8.03;6.80;;;;;;;4.31;77.35;101663.56;5119483;27;20491;-70
2021/01/05 09:11:54;;;;;;;8.00;7.20;;;;;;;4.51;76.58;101664.56;5119174;28;20172;-70
2021/01/05 09:14:20;;;;;;;7.63;6.80;;;;;;;4.45;76.94;101673.69;5119351;28;20486;-70
2021/01/05 09:16:46;;;;;;;7.77;6.97;;;;;;;4.24;77.57;101663.22;5119471;28;20401;-71
2021/01/05 09:19:11;;;;;;;8.50;7.60;;;;;;;4.19;77.37;101665.53;5119033;28;20820;-69
2021/01/05 09:21:37;;;;;;;9.20;8.30;;;;;;;4.41;76.69;101671.78;5119055;28;20513;-70
2021/01/05 09:24:02;;;;;;;8.90;7.00;;;;;;;4.45;76.30;101663.38;5118924;28;20230;-70
2021/01/05 09:26:35;;;;;;;8.60;7.53;;;;;;;4.55;76.39;101666.50;5118875;28;20203;-70
2021/01/05 09:29:06;;;;;;;8.10;7.30;;;;;;;4.51;76.69;101667.16;5118275;28;20194;-69
2021/01/05 09:31:31;;;;;;;7.63;6.83;;;;;;;4.36;77.13;101671.56;5119006;28;20704;-70
2021/01/05 09:33:57;;;;;;;8.50;6.97;;;;;;;4.98;74.59;101659.03;5118755;28;20417;-69
2021/01/05 09:36:30;;;;;;;8.23;7.30;;;;;;;4.38;77.27;101668.25;5119031;28;20213;-70
2021/01/05 09:38:55;;;;;;;8.03;6.97;;;;;;;4.62;75.68;101672.84;5118793;28;20190;-69
2021/01/05 09:41:26;;;;;;;12.50;7.87;;;;;;;4.92;74.90;101676.84;5117257;28;20426;-69
2021/01/05 09:43:52;;;;;;;7.40;6.70;;;;;;;4.66;76.04;101672.19;5118303;28;20267;-70
2021/01/05 09:46:18;;;;;;;8.07;7.27;;;;;;;4.71;76.18;101677.59;5117742;28;20544;-70
2021/01/05 09:48:44;;;;;;;7.47;6.77;;;;;;;4.70;75.60;101676.69;5118776;28;20160;-70
2021/01/05 09:51:09;;;;;;;9.50;7.77;;;;;;;5.17;74.85;101684.94;5118509;27;20435;-70
2021/01/05 09:53:37;;;;;;;7.93;7.20;;;;;;;4.78;75.62;101678.78;5118481;28;20180;-69
2021/01/05 09:56:02;;;;;;;8.13;7.30;;;;;;;4.36;76.65;101676.72;5118823;28;20216;-70
2021/01/05 09:58:27;;;;;;;8.50;7.10;;;;;;;4.40;76.05;101676.06;5118381;28;20422;-69
2021/01/05 10:00:53;;;;;;;8.10;7.00;;;;;;;4.41;75.91;101677.84;5118031;28;20191;-69
2021/01/05 10:03:18;;;;;;;8.20;7.43;;;;;;;4.99;74.62;101674.63;5118851;28;20160;-69
2021/01/05 10:05:44;;;;;;;11.23;7.07;;;;;;;4.27;76.69;101676.25;5118349;28;20213;-70
2021/01/05 10:08:09;;;;;;;9.93;7.23;;;;;;;4.81;75.73;101679.78;5118532;28;20224;-70
2021/01/05 10:10:34;;;;;;;9.70;7.57;;;;;;;4.91;74.32;101680.22;5118564;28;20545;-69
2021/01/05 10:12:59;;;;;;;9.10;8.20;;;;;;;5.40;73.26;101667.91;5118339;28;20214;-69
2021/01/05 10:15:25;;;;;;;8.50;6.87;;;;;;;4.93;74.44;101676.91;5118113;28;20240;-70
2021/01/05 10:17:50;;;;;;;6.97;5.93;;;;;;;4.00;77.54;101672.34;5118487;28;20179;-70
2021/01/05 10:20:19;;;;;;;7.43;6.63;;;;;;;4.30;75.89;101673.81;5118316;28;20414;-70
2021/01/05 10:22:45;;;;;;;8.23;7.40;;;;;;;5.04;74.43;101672.25;5117941;28;20633;-70
2021/01/05 10:25:11;;;;;;;9.20;6.10;;;;;;;4.33;76.19;101672.28;5117755;28;20540;-70
2021/01/05 10:27:37;;;;;;;7.50;5.60;;;;;;;4.50;75.43;101670.53;5111269;28;20194;-69
2021/01/05 10:30:08;;;;;;;7.37;6.50;;;;;;;4.81;74.96;101673.75;5102575;28;20426;-70
2021/01/05 10:32:33;;;;;;;9.13;6.30;;;;;;;4.15;77.17;101664.50;5112271;28;20312;-67
2021/01/05 10:34:58;;;;;;;8.43;6.50;;;;;;;4.74;75.36;101669.09;5117247;28;20421;-68
2021/01/05 10:37:24;;;;;;;6.80;5.53;;;;;;;4.40;76.20;101678.66;5117988;28;20209;-68
2021/01/05 10:39:49;;;;;;;6.83;6.07;;;;;;;4.46;75.87;101665.16;5117392;28;20172;-68
2021/01/05 10:42:15;;;;;;;7.90;6.80;;;;;;;4.86;75.11;101662.81;5117641;28;20225;-68
2021/01/05 10:44:40;;;;;;;8.80;6.60;;;;;;;5.17;73.57;101665.97;5117880;28;20168;-68
2021/01/05 10:47:06;;;;;;;7.20;6.50;;;;;;;4.77;74.16;101661.50;5117507;28;20270;-69
2021/01/05 10:49:31;;;;;;;9.40;6.43;;;;;;;5.58;72.20;101661.78;5117573;28;20179;-68
2021/01/05 10:51:58;;;;;;;7.40;6.70;;;;;;;5.42;71.85;101662.78;5118033;28;20409;-69
2021/01/05 10:54:26;;;;;;;7.47;6.73;;;;;;;5.08;73.73;101669.00;5120379;28;20167;-70
2021/01/05 10:56:58;;;;;;;7.40;6.70;;;;;;;5.79;71.44;101658.38;5122028;28;20421;-69
2021/01/05 10:59:24;;;;;;;6.68;5.70;;;;;;;4.49;74.18;101671.38;5121593;28;20535;-69
2021/01/05 11:01:50;;;;;;;6.30;5.70;;;;;;;5.08;72.43;101665.53;5121784;28;20187;-70
2021/01/05 11:04:15;;;;;;;8.13;5.83;;;;;;;4.97;71.60;101670.19;5122160;28;20806;-71
2021/01/05 11:06:56;;;;;;;7.57;6.57;;;;;;;4.97;73.85;101665.91;5121656;28;20203;-70
2021/01/05 11:09:22;;;;;;;6.00;5.50;;;;;;;4.74;75.41;101661.34;5120873;28;20228;-71
2021/01/05 11:11:54;;;;;;;6.70;6.00;;;;;;;4.76;73.90;101651.97;5121397;28;20678;-70
2021/01/05 11:14:20;;;;;;;6.17;5.57;;;;;;;5.04;73.45;101661.91;5121311;28;20206;-70
2021/01/05 11:16:47;;;;;;;7.30;6.40;;;;;;;4.74;74.19;101662.22;5121536;28;20779;-70
2021/01/05 11:19:12;;;;;;;6.67;5.83;;;;;;;4.39;74.86;101661.38;5121312;28;20500;-70
2021/01/05 11:21:37;;;;;;;7.90;6.60;;;;;;;5.33;71.95;101645.19;5121462;28;20503;-71
2021/01/05 11:24:03;;;;;;;6.97;6.27;;;;;;;4.75;74.15;101653.66;5121170;28;20250;-71
2021/01/05 11:26:34;;;;;;;7.87;6.50;;;;;;;4.45;74.02;101640.13;5121149;28;20204;-70
2021/01/05 11:28:59;;;;;;;7.83;6.70;;;;;;;4.84;74.18;101642.88;5121577;27;20199;-71
2021/01/05 11:31:24;;;;;;;7.40;6.17;;;;;;;5.35;71.42;101642.66;5121331;28;20700;-70
2021/01/05 11:33:49;;;;;;;5.87;5.37;;;;;;;4.71;73.89;101637.13;5121333;28;20556;-70
2021/01/05 11:36:25;;;;;;;7.40;6.70;;;;;;;4.93;73.90;101635.56;5122346;28;20172;-71
2021/01/05 11:38:51;;;;;;;6.67;5.97;;;;;;;5.11;72.45;101630.34;5121648;28;20175;-71
2021/01/05 11:41:37;;;;;;;5.73;5.23;;;;;;;4.59;74.34;101639.13;5120125;28;20425;-71